createdAt,value
2023-04-29T00:01:28.275Z,4.84
2023-04-29T00:03:02.483Z,4.75
2023-04-29T00:04:36.222Z,4.71
2023-04-29T00:06:11.540Z,4.71
2023-04-29T00:07:45.544Z,4.64
2023-04-29T00:09:18.860Z,4.56
2023-04-29T00:10:52.226Z,4.57
2023-04-29T00:12:25.542Z,4.50
2023-04-29T00:14:03.060Z,4.29
2023-04-29T00:15:37.689Z,4.23
2023-04-29T00:17:10.936Z,4.17
2023-04-29T00:18:44.194Z,4.13
2023-04-29T00:20:17.833Z,4.08
2023-04-29T00:21:51.099Z,3.99
2023-04-29T00:23:24.303Z,3.92
2023-04-29T00:24:57.459Z,3.79
2023-04-29T00:26:30.653Z,3.75
2023-04-29T00:28:04.188Z,3.85
2023-04-29T00:29:38.728Z,3.92
2023-04-29T00:31:12.038Z,3.93
2023-04-29T00:32:46.751Z,4.00
2023-04-29T00:34:19.019Z,4.05
2023-04-29T00:35:52.718Z,4.03
2023-04-29T00:37:25.809Z,4.09
2023-04-29T00:38:59.691Z,4.14
2023-04-29T00:40:33.091Z,4.18
2023-04-29T00:42:06.769Z,4.18
2023-04-29T00:43:39.971Z,4.16
2023-04-29T00:45:14.794Z,4.13
2023-04-29T00:46:48.287Z,4.11
2023-04-29T00:48:20.526Z,4.08
2023-04-29T00:49:53.953Z,4.15
2023-04-29T00:51:28.264Z,4.17
2023-04-29T00:53:02.259Z,4.18
2023-04-29T00:54:35.385Z,4.15
2023-04-29T00:56:08.912Z,4.17
2023-04-29T00:57:42.788Z,4.11
2023-04-29T00:59:17.311Z,4.14
2023-04-29T01:00:52.655Z,4.09
2023-04-29T01:02:26.871Z,4.07
2023-04-29T01:04:00.595Z,4.05
2023-04-29T01:05:35.513Z,4.05
2023-04-29T01:07:15.929Z,4.03
2023-04-29T01:09:01.755Z,4.04
2023-04-29T01:10:43.614Z,3.97
2023-04-29T01:12:21.538Z,3.92
2023-04-29T01:14:00.459Z,3.87
2023-04-29T01:15:40.720Z,3.84
2023-04-29T01:17:24.910Z,3.70
2023-04-29T01:19:02.163Z,3.60
2023-04-29T01:20:40.057Z,3.53
2023-04-29T01:22:12.646Z,3.49
2023-04-29T01:23:47.954Z,3.50
2023-04-29T01:25:21.294Z,3.55
2023-04-29T01:27:23.624Z,3.58
2023-04-29T01:29:13.500Z,3.57
2023-04-29T01:31:09.120Z,3.63
2023-04-29T01:33:02.191Z,3.63
2023-04-29T01:34:45.244Z,3.58
2023-04-29T01:36:29.197Z,3.54
2023-04-29T01:38:15.116Z,3.50
2023-04-29T01:40:02.112Z,3.45
2023-04-29T01:41:44.385Z,3.42
2023-04-29T01:43:28.340Z,3.49
2023-04-29T01:45:06.768Z,3.52
2023-04-29T01:46:40.673Z,3.57
2023-04-29T01:48:14.659Z,3.54
2023-04-29T01:49:48.506Z,3.51
2023-04-29T01:51:22.345Z,3.48
2023-04-29T01:52:56.064Z,3.47
2023-04-29T01:54:29.237Z,3.36
2023-04-29T01:56:06.152Z,3.40
2023-04-29T01:58:02.362Z,3.45
2023-04-29T02:00:11.976Z,3.52
2023-04-29T02:01:52.453Z,3.57
2023-04-29T02:03:26.152Z,3.59
2023-04-29T02:05:02.396Z,3.62
2023-04-29T02:06:35.642Z,3.66
2023-04-29T02:08:09.870Z,3.66
2023-04-29T02:09:48.229Z,3.64
2023-04-29T02:11:22.704Z,3.59
2023-04-29T02:12:56.193Z,3.55
2023-04-29T02:14:30.358Z,3.54
2023-04-29T02:16:10.688Z,3.54
2023-04-29T02:17:47.634Z,3.50
2023-04-29T02:19:20.877Z,3.46
2023-04-29T02:21:02.130Z,3.45
2023-04-29T02:22:35.563Z,3.44
2023-04-29T02:24:08.816Z,3.44
2023-04-29T02:25:42.084Z,3.44
2023-04-29T02:27:16.595Z,3.48
2023-04-29T02:28:50.675Z,3.51
2023-04-29T02:30:22.782Z,3.55
2023-04-29T02:31:56.295Z,3.59
2023-04-29T02:33:29.499Z,3.63
2023-04-29T02:35:02.870Z,3.65
2023-04-29T02:36:36.171Z,3.64
2023-04-29T02:38:09.503Z,3.64
2023-04-29T02:39:43.623Z,3.61
2023-04-29T02:41:18.219Z,3.59
2023-04-29T02:42:55.809Z,3.54
2023-04-29T02:44:28.945Z,3.50
2023-04-29T02:46:02.231Z,3.43
2023-04-29T02:47:35.833Z,3.37
2023-04-29T02:49:09.022Z,3.39
2023-04-29T02:50:42.634Z,3.35
2023-04-29T02:52:17.044Z,3.42
2023-04-29T02:53:50.659Z,3.44
2023-04-29T02:55:22.796Z,3.43
2023-04-29T02:56:55.994Z,3.41
2023-04-29T02:58:30.489Z,3.44
2023-04-29T03:00:04.563Z,3.41
2023-04-29T03:01:38.719Z,3.35
2023-04-29T03:03:12.100Z,3.32
2023-04-29T03:04:45.467Z,3.34
2023-04-29T03:06:18.783Z,3.31
2023-04-29T03:07:52.084Z,3.29
2023-04-29T03:09:25.470Z,3.31
2023-04-29T03:10:57.596Z,3.28
2023-04-29T03:12:31.427Z,3.21
2023-04-29T03:14:06.227Z,3.13
2023-04-29T03:15:39.743Z,3.10
2023-04-29T06:24:36.089Z,14.16
2023-04-29T06:26:10.591Z,14.13
2023-04-29T06:27:44.020Z,14.18
2023-04-29T06:29:17.474Z,14.22
2023-04-29T06:30:51.135Z,14.49
2023-04-29T06:32:25.729Z,14.94
2023-04-29T06:33:58.888Z,15.14
2023-04-29T06:35:32.341Z,15.28
2023-04-29T06:37:11.995Z,15.61
2023-04-29T06:39:17.252Z,16.06
2023-04-29T06:41:20.907Z,16.50
2023-04-29T06:43:14.449Z,17.09
2023-04-29T06:44:46.621Z,17.17
2023-04-29T06:46:34.407Z,17.18
2023-04-29T06:48:11.228Z,17.32
2023-04-29T06:49:55.187Z,17.43
2023-04-29T06:51:29.485Z,17.28
2023-04-29T06:53:04.860Z,16.88
2023-04-29T06:54:38.220Z,17.04
2023-04-29T06:56:11.711Z,17.39
2023-04-29T06:57:46.335Z,17.74
2023-04-29T06:59:20.715Z,18.06
2023-04-29T07:00:53.953Z,18.24
2023-04-29T07:02:29.076Z,18.04
2023-04-29T07:04:02.656Z,17.87
2023-04-29T07:05:35.900Z,17.72
2023-04-29T07:07:09.268Z,17.99
2023-04-29T07:08:42.732Z,18.25
2023-04-29T07:10:16.038Z,18.41
2023-04-29T07:11:49.154Z,18.41
2023-04-29T07:13:27.170Z,18.51
2023-04-29T07:15:02.045Z,18.34
2023-04-29T07:16:35.496Z,18.55
2023-04-29T07:18:08.717Z,18.76
2023-04-29T07:19:41.931Z,18.67
2023-04-29T07:21:15.599Z,18.66
2023-04-29T07:22:49.169Z,18.72
2023-04-29T07:24:23.406Z,18.93
2023-04-29T07:25:56.580Z,18.78
2023-04-29T07:27:30.088Z,18.26
2023-04-29T07:29:05.563Z,18.27
2023-04-29T07:30:38.757Z,17.84
2023-04-29T07:32:12.018Z,18.29
2023-04-29T07:33:46.728Z,18.66
2023-04-29T07:35:20.968Z,19.02
2023-04-29T07:36:54.089Z,19.20
2023-04-29T07:38:27.434Z,19.28
2023-04-29T07:40:01.310Z,19.35
2023-04-29T07:41:35.119Z,19.62
2023-04-29T07:43:09.450Z,19.76
2023-04-29T07:44:45.541Z,20.06
2023-04-29T07:46:19.123Z,20.51
2023-04-29T07:47:52.380Z,20.71
2023-04-29T07:49:26.175Z,20.59
2023-04-29T07:51:00.297Z,20.02
2023-04-29T07:52:33.885Z,19.35
2023-04-29T07:54:07.490Z,19.40
2023-04-29T07:55:40.710Z,19.98
2023-04-29T07:57:14.733Z,20.25
2023-04-29T07:58:49.318Z,20.56
2023-04-29T08:00:24.462Z,20.90
2023-04-29T08:01:57.628Z,21.25
2023-04-29T08:03:31.503Z,21.52
2023-04-29T08:05:07.271Z,21.69
2023-04-29T08:06:41.757Z,21.84
2023-04-29T08:08:17.502Z,22.09
2023-04-29T08:09:50.632Z,22.39
2023-04-29T08:11:26.489Z,22.44
2023-04-29T08:12:59.657Z,22.53
2023-04-29T08:14:32.811Z,22.74
2023-04-29T08:16:09.633Z,22.86
2023-04-29T08:17:43.054Z,23.06
2023-04-29T08:19:16.275Z,23.08
2023-04-29T08:20:50.693Z,23.11
2023-04-29T08:22:23.882Z,23.17
2023-04-29T08:23:57.263Z,23.13
2023-04-29T08:25:30.528Z,23.36
2023-04-29T08:27:03.659Z,23.53
2023-04-29T08:28:36.890Z,23.72
2023-04-29T08:30:11.007Z,23.61
2023-04-29T08:31:45.720Z,23.81
2023-04-29T08:33:18.865Z,23.98
2023-04-29T08:34:52.378Z,24.10
2023-04-29T08:36:26.070Z,24.40
2023-04-29T08:37:59.499Z,24.50
2023-04-29T08:39:32.637Z,24.23
2023-04-29T08:41:06.010Z,23.78
2023-04-29T08:42:39.418Z,23.72
2023-04-29T08:44:12.802Z,23.92
2023-04-29T08:45:47.795Z,24.06
2023-04-29T08:48:58.330Z,24.31
2023-04-29T08:50:32.735Z,24.10
2023-04-29T08:52:06.303Z,24.05
2023-04-29T08:53:39.464Z,24.39
2023-04-29T08:55:12.912Z,24.55
2023-04-29T08:56:48.073Z,24.21
2023-04-29T08:58:21.262Z,24.24
2023-04-29T08:59:54.709Z,24.30
2023-04-29T09:01:30.030Z,24.58
2023-04-29T09:03:15.753Z,24.59
2023-04-29T09:04:54.569Z,24.52
2023-04-29T09:06:28.346Z,24.57
2023-04-29T09:08:03.458Z,24.78
2023-04-29T09:09:37.167Z,24.79
2023-04-29T09:11:11.864Z,24.27
2023-04-29T09:12:46.169Z,24.12
2023-04-29T09:14:20.699Z,24.35
2023-04-29T09:15:54.012Z,24.61
2023-04-29T09:17:40.488Z,24.27
2023-04-29T09:19:31.067Z,24.47
2023-04-29T09:21:14.521Z,24.47
2023-04-29T09:22:50.087Z,24.33
2023-04-29T09:24:27.531Z,24.36
2023-04-29T09:26:01.523Z,24.36
2023-04-29T09:27:34.812Z,24.39
2023-04-29T09:29:10.119Z,24.52
2023-04-29T09:30:47.182Z,24.46
2023-04-29T09:32:22.366Z,24.23
2023-04-29T09:33:57.662Z,23.93
2023-04-29T09:35:32.264Z,23.75
2023-04-29T09:37:05.428Z,23.58
2023-04-29T09:38:55.338Z,23.33
2023-04-29T09:40:40.412Z,23.17
2023-04-29T09:42:20.102Z,23.16
2023-04-29T09:44:05.563Z,23.34
2023-04-29T09:45:41.899Z,23.08
2023-04-29T09:47:15.190Z,22.77
2023-04-29T09:48:48.658Z,22.96
2023-04-29T09:50:22.036Z,22.76
2023-04-29T09:51:58.541Z,22.76
2023-04-29T09:53:32.400Z,22.79
2023-04-29T09:55:08.050Z,22.75
2023-04-29T09:56:51.020Z,22.56
2023-04-29T09:58:34.292Z,22.47
2023-04-29T10:00:09.357Z,22.32
2023-04-29T10:01:49.276Z,22.23
2023-04-29T10:03:24.086Z,21.94
2023-04-29T10:04:58.487Z,21.77
2023-04-29T10:06:32.239Z,21.83
2023-04-29T10:08:07.569Z,21.87
2023-04-29T10:09:41.773Z,21.58
2023-04-29T10:11:16.151Z,21.70
2023-04-29T10:12:49.853Z,21.58
2023-04-29T10:14:25.503Z,21.52
2023-04-29T10:16:07.575Z,21.44
2023-04-29T10:17:45.370Z,21.49
2023-04-29T10:19:27.799Z,21.52
2023-04-29T10:21:03.005Z,21.34
2023-04-29T10:22:44.429Z,21.35
2023-04-29T10:24:20.889Z,21.13
2023-04-29T10:25:54.780Z,21.16
2023-04-29T10:27:29.409Z,21.00
2023-04-29T10:29:03.757Z,20.93
2023-04-29T10:30:38.310Z,20.75
2023-04-29T10:32:13.029Z,20.56
2023-04-29T10:33:47.319Z,20.56
2023-04-29T10:35:24.112Z,20.55
2023-04-29T10:36:57.584Z,20.47
2023-04-29T10:38:40.306Z,20.38
2023-04-29T10:40:20.980Z,20.31
2023-04-29T10:41:55.707Z,20.54
2023-04-29T10:43:29.091Z,20.55
2023-04-29T10:45:24.508Z,20.76
2023-04-29T10:47:22.662Z,20.81
2023-04-29T10:49:02.662Z,20.83
2023-04-29T10:50:42.362Z,20.62
2023-04-29T10:52:18.242Z,20.53
2023-04-29T10:54:02.366Z,20.53
2023-04-29T10:55:39.682Z,20.51
2023-04-29T10:57:22.087Z,20.27
2023-04-29T10:58:55.178Z,20.19
2023-04-29T11:00:30.182Z,20.30
2023-04-29T11:02:03.473Z,20.36
2023-04-29T11:03:54.984Z,20.34
2023-04-29T11:05:33.320Z,20.57
2023-04-29T11:07:06.804Z,20.75
2023-04-29T11:08:40.048Z,20.80
2023-04-29T11:10:14.627Z,20.74
2023-04-29T11:12:00.763Z,20.92
2023-04-29T11:13:40.006Z,20.95
2023-04-29T11:15:19.494Z,21.00
2023-04-29T11:16:55.071Z,21.07
2023-04-29T11:18:30.296Z,21.20
2023-04-29T11:20:03.597Z,21.25
2023-04-29T11:21:37.646Z,21.15
2023-04-29T11:23:11.027Z,21.20
2023-04-29T11:24:52.414Z,21.25
2023-04-29T11:26:25.961Z,21.27
2023-04-29T11:28:01.985Z,21.39
2023-04-29T11:29:35.371Z,21.47
2023-04-29T11:31:09.243Z,21.34
2023-04-29T11:32:43.303Z,21.24
2023-04-29T11:34:16.704Z,20.99
2023-04-29T11:35:50.132Z,20.82
2023-04-29T11:37:25.419Z,20.86
2023-04-29T11:38:58.596Z,21.07
2023-04-29T11:40:34.014Z,21.07
2023-04-29T11:42:08.148Z,21.17
2023-04-29T11:43:44.166Z,21.13
2023-04-29T11:45:20.504Z,21.08
2023-04-29T11:46:54.799Z,21.07
2023-04-29T11:48:29.744Z,21.10
2023-04-29T11:50:07.129Z,21.15
2023-04-29T11:51:40.881Z,20.88
2023-04-29T11:53:14.083Z,20.65
2023-04-29T11:54:48.964Z,20.60
2023-04-29T11:56:25.700Z,20.48
2023-04-29T11:57:58.845Z,20.11
2023-04-29T11:59:33.935Z,20.35
2023-04-29T12:01:07.372Z,20.44
2023-04-29T12:02:41.002Z,20.41
2023-04-29T12:04:14.362Z,20.46
2023-04-29T12:05:49.508Z,20.72
2023-04-29T12:07:22.914Z,20.83
2023-04-29T12:08:56.324Z,20.89
2023-04-29T12:10:29.583Z,20.95
2023-04-29T12:12:02.824Z,21.00
2023-04-29T12:13:37.166Z,20.95
2023-04-29T12:15:13.068Z,21.14
2023-04-29T12:16:47.568Z,21.23
2023-04-29T12:18:23.475Z,21.32
2023-04-29T12:19:56.808Z,21.26
2023-04-29T12:21:30.217Z,21.02
2023-04-29T12:23:13.493Z,20.80
2023-04-29T12:24:46.712Z,20.76
2023-04-29T12:26:21.155Z,20.81
2023-04-29T12:28:00.958Z,20.78
2023-04-29T12:29:34.943Z,20.83
2023-04-29T12:31:11.458Z,20.90
2023-04-29T12:32:44.712Z,20.93
2023-04-29T12:34:18.295Z,20.90
2023-04-29T12:35:52.084Z,20.82
2023-04-29T12:37:26.025Z,20.76
2023-04-29T12:39:00.629Z,20.68
2023-04-29T12:40:34.088Z,20.58
2023-04-29T12:42:07.218Z,20.50
2023-04-29T12:43:40.439Z,20.40
2023-04-29T12:45:27.968Z,20.52
2023-04-29T12:47:09.522Z,20.69
2023-04-29T12:48:43.852Z,20.71
2023-04-29T12:50:17.290Z,20.72
2023-04-29T12:51:50.838Z,20.61
2023-04-29T12:53:24.431Z,20.61
2023-04-29T12:54:58.817Z,20.64
2023-04-29T12:56:32.169Z,20.73
2023-04-29T12:58:07.486Z,20.67
2023-04-29T12:59:41.494Z,20.59
2023-04-29T13:01:17.707Z,20.62
2023-04-29T13:02:53.140Z,20.70
2023-04-29T13:04:26.881Z,20.75
2023-04-29T13:06:00.502Z,20.90
2023-04-29T13:07:33.676Z,21.00
2023-04-29T13:09:07.784Z,21.08
2023-04-29T13:10:41.111Z,21.13
2023-04-29T13:12:13.419Z,21.19
2023-04-29T13:13:46.624Z,21.28
2023-04-29T13:15:19.845Z,21.28
2023-04-29T13:16:53.156Z,21.30
2023-04-29T13:18:27.749Z,21.31
2023-04-29T13:20:01.255Z,21.31
2023-04-29T13:21:34.367Z,21.30
2023-04-29T13:23:07.730Z,21.30
2023-04-29T13:24:41.743Z,21.25
2023-04-29T13:26:14.892Z,21.17
2023-04-29T13:27:48.008Z,21.16
2023-04-29T13:29:21.266Z,21.02
2023-04-29T13:30:54.720Z,20.99
2023-04-29T13:32:41.249Z,20.83
2023-04-29T13:34:20.457Z,20.62
2023-04-29T13:35:53.850Z,20.60
2023-04-29T13:37:27.168Z,20.50
2023-04-29T13:39:00.310Z,20.49
2023-04-29T13:40:38.302Z,20.48
2023-04-29T13:42:15.396Z,20.36
2023-04-29T13:43:50.813Z,20.31
2023-04-29T13:45:24.392Z,20.27
2023-04-29T13:46:57.600Z,20.23
2023-04-29T13:49:05.868Z,20.25
2023-04-29T13:51:09.656Z,20.32
2023-04-29T13:52:58.397Z,20.48
2023-04-29T13:54:53.624Z,20.56
2023-04-29T14:02:31.671Z,20.81
2023-04-29T14:04:05.424Z,20.80
2023-04-29T14:05:40.641Z,20.85
2023-04-29T14:07:14.134Z,20.83
2023-04-29T14:08:47.597Z,20.64
2023-04-29T14:10:20.856Z,20.73
2023-04-29T14:11:54.271Z,20.90
2023-04-29T14:13:27.473Z,20.69
2023-04-29T14:15:00.849Z,20.44
2023-04-29T14:16:34.723Z,20.40
2023-04-29T14:18:09.907Z,20.33
2023-04-29T14:19:43.029Z,20.28
2023-04-29T14:21:17.677Z,20.18
2023-04-29T14:22:50.875Z,20.07
2023-04-29T14:24:24.330Z,19.96
2023-04-29T14:26:11.483Z,20.08
2023-04-29T14:27:51.106Z,20.08
2023-04-29T14:29:24.298Z,20.08
2023-04-29T14:30:58.993Z,20.07
2023-04-29T14:32:32.270Z,19.94
2023-04-29T14:34:06.316Z,19.96
2023-04-29T14:35:39.447Z,20.03
2023-04-29T14:37:14.127Z,20.13
2023-04-29T14:38:47.271Z,20.22
2023-04-29T14:40:21.212Z,20.22
2023-04-29T14:41:53.519Z,19.98
2023-04-29T14:43:26.751Z,19.80
2023-04-29T14:44:59.930Z,19.85
2023-04-29T14:46:34.779Z,19.76
2023-04-29T14:48:08.012Z,19.69
2023-04-29T14:49:41.401Z,19.65
2023-04-29T14:51:14.498Z,19.58
2023-04-29T14:52:49.250Z,19.48
2023-04-29T14:54:22.436Z,19.44
2023-04-29T14:55:55.873Z,19.51
2023-04-29T14:57:30.077Z,19.47
2023-04-29T14:59:03.933Z,19.34
2023-04-29T15:00:37.154Z,19.26
2023-04-29T15:02:10.598Z,19.32
2023-04-29T15:03:44.991Z,19.31
2023-04-29T15:05:19.139Z,19.35
2023-04-29T15:06:52.815Z,19.23
2023-04-29T15:08:27.759Z,19.24
2023-04-29T15:10:00.990Z,19.17
2023-04-29T15:11:34.364Z,19.13
2023-04-29T15:13:07.510Z,19.10
2023-04-29T15:14:40.869Z,19.03
2023-04-29T15:16:14.281Z,19.11
2023-04-29T15:17:47.695Z,19.13
2023-04-29T15:19:20.821Z,19.18
2023-04-29T15:20:54.054Z,19.26
2023-04-29T15:22:27.213Z,19.30
2023-04-29T15:24:02.681Z,19.30
2023-04-29T15:25:36.548Z,19.25
2023-04-29T15:27:09.866Z,19.16
2023-04-29T15:28:45.786Z,19.19
2023-04-29T15:30:19.070Z,19.28
2023-04-29T15:31:52.433Z,19.27
2023-04-29T15:33:25.721Z,19.22
2023-04-29T15:34:58.917Z,19.08
2023-04-29T15:36:33.497Z,18.94
2023-04-29T15:38:07.060Z,18.92
2023-04-29T15:39:41.703Z,18.83
2023-04-29T15:41:14.809Z,18.79
2023-04-29T15:42:48.122Z,18.81
2023-04-29T15:44:21.240Z,18.85
2023-04-29T15:45:54.688Z,18.87
2023-04-29T15:47:28.028Z,18.86
2023-04-29T15:49:02.435Z,18.84
2023-04-29T15:50:35.681Z,18.83
2023-04-29T15:52:09.094Z,18.83
2023-04-29T15:53:42.168Z,18.76
2023-04-29T15:55:18.610Z,18.73
2023-04-29T15:56:52.022Z,18.70
2023-04-29T15:58:25.342Z,18.67
2023-04-29T15:59:58.453Z,18.62
2023-04-29T16:01:32.980Z,18.61
2023-04-29T16:03:07.629Z,18.54
2023-04-29T16:04:41.474Z,18.51
2023-04-29T16:06:14.689Z,18.51
2023-04-29T16:07:48.386Z,18.46
2023-04-29T16:09:21.711Z,18.48
2023-04-29T16:10:56.606Z,18.45
2023-04-29T16:12:29.847Z,18.47
2023-04-29T16:14:03.056Z,18.47
2023-04-29T16:15:36.732Z,18.44
2023-04-29T16:17:10.204Z,18.34
2023-04-29T16:18:43.400Z,18.30
2023-04-29T16:20:17.473Z,18.28
2023-04-29T16:21:50.630Z,18.28
2023-04-29T16:23:23.817Z,18.28
2023-04-29T16:24:59.371Z,18.30
2023-04-29T16:26:34.261Z,18.23
2023-04-29T16:28:07.446Z,18.15
2023-04-29T16:29:40.788Z,18.12
2023-04-29T16:31:14.135Z,18.06
2023-04-29T16:32:48.032Z,18.09
2023-04-29T16:34:21.219Z,18.09
2023-04-29T16:35:57.180Z,18.13
2023-04-29T16:37:30.605Z,18.16
2023-04-29T16:39:04.750Z,18.16
2023-04-29T16:40:37.869Z,18.19
2023-04-29T16:42:12.645Z,18.17
2023-04-29T16:43:45.820Z,18.18
2023-04-29T16:45:20.526Z,18.17
2023-04-29T16:46:55.544Z,18.18
2023-04-29T16:48:29.830Z,18.17
2023-04-29T16:50:02.974Z,18.08
2023-04-29T16:51:36.480Z,18.05
2023-04-29T16:53:09.799Z,17.97
2023-04-29T16:54:43.062Z,17.91
2023-04-29T16:56:16.592Z,17.92
2023-04-29T16:57:51.341Z,17.90
2023-04-29T16:59:25.914Z,17.89
2023-04-29T17:00:59.435Z,17.83
2023-04-29T17:02:32.963Z,17.82
2023-04-29T17:04:06.280Z,17.86
2023-04-29T17:05:39.965Z,17.87
2023-04-29T17:07:14.650Z,17.89
2023-04-29T17:08:51.339Z,17.88
2023-04-29T17:10:25.342Z,17.87
2023-04-29T17:11:58.664Z,17.92
2023-04-29T17:13:33.557Z,17.93
2023-04-29T17:15:07.653Z,17.89
2023-04-29T17:16:40.813Z,17.84
2023-04-29T17:18:13.985Z,17.78
2023-04-29T17:19:50.238Z,17.69
2023-04-29T17:21:25.848Z,17.65
2023-04-29T17:22:59.036Z,17.63
2023-04-29T17:24:32.701Z,17.61
2023-04-29T17:26:07.605Z,17.57
2023-04-29T17:27:40.709Z,17.53
2023-04-29T17:29:15.392Z,17.51
2023-04-29T17:30:48.536Z,17.52
2023-04-29T17:32:28.558Z,17.52
2023-04-29T17:34:18.406Z,17.47
2023-04-29T17:35:51.825Z,17.45
2023-04-29T17:37:25.939Z,17.43
2023-04-29T17:38:59.215Z,17.42
2023-04-29T17:40:32.333Z,17.38
2023-04-29T17:42:05.854Z,17.32
2023-04-29T17:43:39.040Z,17.28
2023-04-29T17:45:15.155Z,17.27
2023-04-29T17:46:48.389Z,17.23
2023-04-29T17:48:22.601Z,17.20
2023-04-29T17:49:56.544Z,17.19
2023-04-29T17:51:33.164Z,17.21
2023-04-29T17:53:06.477Z,17.22
2023-04-29T17:54:40.404Z,17.24
2023-04-29T17:56:13.532Z,17.17
2023-04-29T17:57:46.779Z,17.16
2023-04-29T17:59:20.049Z,17.06
2023-04-29T18:00:56.049Z,17.06
2023-04-29T18:02:29.281Z,17.05
2023-04-29T18:04:02.938Z,17.03
2023-04-29T18:05:36.324Z,17.07
2023-04-29T18:07:09.740Z,17.07
2023-04-29T18:08:43.104Z,17.06
2023-04-29T18:10:16.517Z,17.06
2023-04-29T18:11:49.974Z,16.95
2023-04-29T18:13:25.910Z,16.77
2023-04-29T18:15:00.829Z,16.73
2023-04-29T18:16:35.732Z,16.65
2023-04-29T18:18:09.247Z,16.54
2023-04-29T18:19:42.414Z,16.49
2023-04-29T18:21:21.198Z,16.42
2023-04-29T18:22:54.341Z,16.37
2023-04-29T18:24:28.662Z,16.33
2023-04-29T18:26:01.949Z,16.30
2023-04-29T18:27:35.110Z,16.27
2023-04-29T18:29:08.366Z,16.24
2023-04-29T18:30:41.567Z,16.23
2023-04-29T18:32:16.201Z,16.19
2023-04-29T18:33:49.431Z,16.17
2023-04-29T18:35:22.942Z,16.13
2023-04-29T18:36:56.068Z,16.01
2023-04-29T18:38:29.433Z,15.88
2023-04-29T18:40:02.597Z,15.76
2023-04-29T18:41:35.793Z,15.67
2023-04-29T18:43:09.008Z,15.60
2023-04-29T18:44:42.184Z,15.50
2023-04-29T18:46:15.406Z,15.51
2023-04-29T18:47:50.019Z,15.49
2023-04-29T18:49:23.153Z,15.46
2023-04-29T18:50:59.213Z,15.45
2023-04-29T18:52:32.370Z,15.50
2023-04-29T18:54:05.735Z,15.47
2023-04-29T18:55:39.027Z,15.45
2023-04-29T18:57:12.305Z,15.43
2023-04-29T18:58:45.761Z,15.39
2023-04-29T19:00:19.189Z,15.37
2023-04-29T19:01:52.446Z,15.35
2023-04-29T19:03:27.277Z,15.28
2023-04-29T19:05:02.859Z,15.21
2023-04-29T19:06:36.360Z,15.08
2023-04-29T19:08:09.593Z,14.97
2023-04-29T19:09:42.839Z,14.80
2023-04-29T19:11:15.988Z,14.69
2023-04-29T19:12:49.230Z,14.54
2023-04-29T19:14:22.462Z,14.47
2023-04-29T19:15:55.810Z,14.48
2023-04-29T19:17:28.983Z,14.49
2023-04-29T19:19:04.169Z,14.52
2023-04-29T19:20:37.504Z,14.57
2023-04-29T19:22:10.958Z,14.67
2023-04-29T19:23:44.252Z,14.68
2023-04-29T19:25:17.553Z,14.74
2023-04-29T19:26:51.012Z,14.70
2023-04-29T19:28:24.250Z,14.71
2023-04-29T19:29:57.435Z,14.77
2023-04-29T19:31:30.838Z,14.79
2023-04-29T19:33:04.408Z,14.75
2023-04-29T19:34:39.099Z,14.74
2023-04-29T19:36:14.292Z,14.72
2023-04-29T19:37:47.583Z,14.72
2023-04-29T19:39:20.816Z,14.71
2023-04-29T19:40:55.956Z,14.70
2023-04-29T19:42:29.195Z,14.68
2023-04-29T19:44:02.456Z,14.65
2023-04-29T19:45:36.309Z,14.67
2023-04-29T19:47:09.524Z,14.69
2023-04-29T19:48:43.043Z,14.73
2023-04-29T19:50:17.841Z,14.70
2023-04-29T19:51:51.789Z,14.72
2023-04-29T19:53:25.094Z,14.73
2023-04-29T19:54:58.363Z,14.65
2023-04-29T19:56:32.165Z,14.56
2023-04-29T19:58:05.367Z,14.52
2023-04-29T19:59:38.679Z,14.45
2023-04-29T20:01:12.053Z,14.43
2023-04-29T20:02:45.864Z,14.44
2023-04-29T20:04:19.072Z,14.47
2023-04-29T20:05:54.815Z,14.49
2023-04-29T20:07:28.092Z,14.45
2023-04-29T20:09:01.435Z,14.41
2023-04-29T20:10:34.942Z,14.38
2023-04-29T20:12:08.130Z,14.43
2023-04-29T20:13:41.466Z,14.43
2023-04-29T20:15:14.641Z,14.45
2023-04-29T20:16:48.035Z,14.46
2023-04-29T20:18:21.337Z,14.46
2023-04-29T20:19:54.801Z,14.45
2023-04-29T20:21:29.638Z,14.41
2023-04-29T20:23:02.800Z,14.43
2023-04-29T20:24:35.954Z,14.43
2023-04-29T20:26:09.153Z,14.44
2023-04-29T20:27:42.572Z,14.46
2023-04-29T20:29:15.877Z,14.46
2023-04-29T20:30:49.151Z,14.49
2023-04-29T20:32:22.494Z,14.43
2023-04-29T20:33:56.042Z,14.45
2023-04-29T20:35:29.806Z,14.44
2023-04-29T20:37:04.386Z,14.38
2023-04-29T20:38:37.888Z,14.41
2023-04-29T20:40:11.703Z,14.44
2023-04-29T20:41:45.005Z,14.41
2023-04-29T20:43:18.576Z,14.41
2023-04-29T20:44:51.963Z,14.40
2023-04-29T20:46:26.243Z,14.35
2023-04-29T20:47:59.753Z,14.25
2023-04-29T20:49:32.984Z,14.21
2023-04-29T20:51:06.231Z,14.18
2023-04-29T20:52:40.892Z,14.12
2023-04-29T20:54:14.108Z,14.12
2023-04-29T20:55:47.326Z,14.09
2023-04-29T20:57:20.533Z,14.08
2023-04-29T20:58:53.849Z,14.06
2023-04-29T21:00:27.143Z,14.02
2023-04-29T21:02:00.442Z,14.00
2023-04-29T21:03:33.710Z,14.00
2023-04-29T21:05:10.145Z,13.94
2023-04-29T21:06:43.471Z,13.90
2023-04-29T21:08:18.126Z,13.86
2023-04-29T21:09:51.394Z,13.81
2023-04-29T21:11:25.098Z,13.77
2023-04-29T21:12:58.474Z,13.77
2023-04-29T21:14:31.683Z,13.70
2023-04-29T21:16:05.534Z,13.62
2023-04-29T21:17:38.781Z,13.54
2023-04-29T21:19:11.948Z,13.47
2023-04-29T21:20:45.794Z,13.42
2023-04-29T21:22:19.001Z,13.41
2023-04-29T21:23:53.708Z,13.37
2023-04-29T21:25:26.915Z,13.36
2023-04-29T21:27:00.051Z,13.32
2023-04-29T21:28:33.665Z,13.31
2023-04-29T21:30:08.103Z,13.31
2023-04-29T21:31:41.335Z,13.32
2023-04-29T21:33:14.595Z,13.29
2023-04-29T21:34:47.765Z,13.32
2023-04-29T21:36:19.968Z,13.28
2023-04-29T21:37:53.113Z,13.14
2023-04-29T21:39:27.695Z,13.05
2023-04-29T21:41:01.797Z,13.03
2023-04-29T21:42:34.825Z,13.04
2023-04-29T21:44:08.225Z,12.99
2023-04-29T21:45:43.158Z,12.94
2023-04-29T21:47:16.491Z,12.91
2023-04-29T21:48:50.247Z,12.86
2023-04-29T21:50:23.477Z,12.86
2023-04-29T21:51:57.156Z,12.84
2023-04-29T21:53:30.301Z,12.85
2023-04-29T21:55:05.898Z,12.91
2023-04-29T21:56:39.146Z,12.96
2023-04-29T21:58:12.558Z,13.02
2023-04-29T21:59:46.390Z,13.01
2023-04-29T22:01:39.909Z,12.99
2023-04-29T22:03:13.316Z,12.94
2023-04-29T22:04:46.589Z,12.95
2023-04-29T22:06:19.807Z,12.99
2023-04-29T22:07:53.053Z,12.97
2023-04-29T22:09:26.358Z,12.96
2023-04-29T22:11:00.848Z,12.97
2023-04-29T22:12:34.026Z,12.98
2023-04-29T22:14:07.228Z,13.02
2023-04-29T22:15:40.852Z,13.05
2023-04-29T22:17:14.301Z,13.07
2023-04-29T22:18:48.254Z,13.10
2023-04-29T22:20:21.713Z,13.09
2023-04-29T22:21:54.896Z,13.11
2023-04-29T22:23:28.049Z,13.11
2023-04-29T22:25:01.197Z,13.12
2023-04-29T22:26:35.774Z,13.11
2023-04-29T22:28:08.939Z,13.11
2023-04-29T22:29:42.090Z,13.11
2023-04-29T22:31:14.251Z,13.14
2023-04-29T22:32:47.517Z,13.19
2023-04-29T22:34:20.940Z,13.20
2023-04-29T22:35:54.101Z,13.23
2023-04-29T22:37:27.194Z,13.22
2023-04-29T22:39:01.386Z,13.23
2023-04-29T22:40:36.021Z,13.19
2023-04-29T22:42:11.558Z,13.20
2023-04-29T22:43:44.736Z,13.18
2023-04-29T22:45:18.483Z,13.15
2023-04-29T22:46:51.752Z,13.16
2023-04-29T22:48:27.492Z,13.15
2023-04-29T22:50:01.236Z,13.16
2023-04-29T22:51:34.572Z,13.16
2023-04-29T22:53:07.798Z,13.14
2023-04-29T22:54:40.876Z,13.08
2023-04-29T22:56:14.077Z,13.02
2023-04-29T22:57:51.662Z,13.04
2023-04-29T22:59:25.006Z,13.07
2023-04-29T23:00:58.814Z,12.97
2023-04-29T23:02:31.971Z,12.84
2023-04-29T23:04:05.494Z,12.72
2023-04-29T23:05:38.729Z,12.72
2023-04-29T23:07:11.840Z,12.73
2023-04-29T23:08:45.390Z,12.71
2023-04-29T23:10:18.824Z,12.69
2023-04-29T23:11:52.133Z,12.67
2023-04-29T23:13:26.692Z,12.65
2023-04-29T23:14:59.837Z,12.68
2023-04-29T23:16:33.173Z,12.64
2023-04-29T23:18:06.737Z,12.61
2023-04-29T23:19:40.092Z,12.57
2023-04-29T23:21:13.255Z,12.59
2023-04-29T23:22:46.624Z,12.56
2023-04-29T23:24:19.993Z,12.56
2023-04-29T23:25:53.135Z,12.61
2023-04-29T23:27:28.738Z,12.67
2023-04-29T23:29:03.418Z,12.70
2023-04-29T23:30:36.642Z,12.72
2023-04-29T23:32:08.756Z,12.75
2023-04-29T23:33:42.156Z,12.77
2023-04-29T23:35:15.522Z,12.78
2023-04-29T23:36:47.695Z,12.79
2023-04-29T23:38:21.199Z,12.80
2023-04-29T23:39:54.198Z,12.79
2023-04-29T23:41:28.516Z,12.76
2023-04-29T23:43:01.667Z,12.72
2023-04-29T23:44:36.313Z,12.72
2023-04-29T23:46:10.249Z,12.71